createdAt,value
2023-04-27T00:03:42.477Z,2.70
2023-04-27T00:08:34.441Z,2.70
2023-04-27T00:13:26.350Z,2.72
2023-04-27T00:18:18.225Z,2.78
2023-04-27T00:23:10.083Z,3.03
2023-04-27T00:28:01.957Z,3.47
2023-04-27T00:32:53.916Z,3.05
2023-04-27T00:37:45.799Z,2.38
2023-04-27T00:42:37.709Z,2.10
2023-04-27T00:47:30.943Z,2.65
2023-04-27T00:52:23.048Z,2.65
2023-04-27T00:57:14.875Z,2.40
2023-04-27T01:02:12.647Z,2.97
2023-04-27T01:07:04.526Z,2.38
2023-04-27T01:11:58.493Z,2.05
2023-04-27T01:16:52.137Z,2.50
2023-04-27T01:21:44.036Z,2.60
2023-04-27T01:26:36.025Z,2.10
2023-04-27T01:31:27.824Z,2.80
2023-04-27T01:36:19.633Z,2.65
2023-04-27T01:41:11.439Z,3.30
2023-04-27T01:46:13.277Z,3.45
2023-04-27T01:51:05.288Z,4.10
2023-04-27T01:55:59.787Z,4.90
2023-04-27T02:00:52.363Z,4.20
2023-04-27T02:05:44.260Z,5.22
2023-04-27T02:10:38.149Z,4.35
2023-04-27T02:15:29.995Z,4.03
2023-04-27T02:20:21.757Z,4.50
2023-04-27T02:25:14.085Z,4.15
2023-04-27T02:30:08.879Z,3.90
2023-04-27T02:35:02.953Z,3.78
2023-04-27T02:39:55.154Z,4.53
2023-04-27T02:44:47.213Z,4.03
2023-04-27T02:49:39.920Z,3.33
2023-04-27T02:54:31.838Z,4.35
2023-04-27T02:59:23.765Z,3.75
2023-04-27T03:04:16.637Z,4.13
2023-04-27T03:09:10.400Z,4.00
2023-04-27T03:14:02.693Z,4.20
2023-04-27T03:18:54.567Z,4.78
2023-04-27T03:23:46.376Z,4.60
2023-04-27T03:28:38.613Z,4.15
2023-04-27T03:33:30.378Z,4.65
2023-04-27T03:38:22.191Z,4.25
2023-04-27T03:43:13.998Z,4.45
2023-04-27T03:48:06.524Z,4.43
2023-04-27T03:52:59.154Z,3.50
2023-04-27T03:57:51.235Z,3.33
2023-04-27T04:02:43.161Z,3.00
2023-04-27T04:07:35.389Z,2.80
2023-04-27T04:12:27.682Z,3.20
2023-04-27T04:17:19.602Z,3.65
2023-04-27T04:22:12.182Z,2.95
2023-04-27T04:27:04.853Z,2.63
2023-04-27T04:31:56.658Z,2.72
2023-04-27T04:36:51.909Z,2.72
2023-04-27T04:41:44.844Z,3.03
2023-04-27T04:46:39.036Z,2.50
2023-04-27T04:51:31.085Z,3.17
2023-04-27T04:56:22.909Z,2.47
2023-04-27T05:01:14.855Z,2.97
2023-04-27T05:06:07.257Z,2.40
2023-04-27T05:10:59.081Z,2.40
2023-04-27T05:15:52.252Z,1.98
2023-04-27T05:20:44.444Z,2.50
2023-04-27T05:25:42.057Z,2.78
2023-04-27T05:30:33.930Z,2.17
2023-04-27T05:35:25.825Z,2.17
2023-04-27T05:40:17.655Z,2.40
2023-04-27T05:45:09.745Z,2.15
2023-04-27T05:50:01.624Z,2.22
2023-04-27T05:54:54.619Z,2.42
2023-04-27T05:59:46.534Z,2.67
2023-04-27T06:04:38.715Z,2.47
2023-04-27T06:09:31.192Z,2.60
2023-04-27T06:14:23.013Z,2.55
2023-04-27T06:19:15.052Z,2.47
2023-04-27T06:24:07.307Z,2.60
2023-04-27T06:28:59.562Z,2.58
2023-04-27T06:33:51.492Z,2.63
2023-04-27T06:38:43.272Z,2.60
2023-04-27T06:43:35.048Z,2.10
2023-04-27T06:48:27.048Z,2.17
2023-04-27T06:53:18.902Z,2.72
2023-04-27T06:58:10.689Z,2.70
2023-04-27T07:03:02.912Z,2.65
2023-04-27T07:07:54.747Z,2.70
2023-04-27T07:12:46.720Z,2.80
2023-04-27T07:17:38.595Z,3.50
2023-04-27T07:22:30.603Z,4.13
2023-04-27T07:27:22.609Z,3.75
2023-04-27T07:32:15.202Z,4.10
2023-04-27T07:37:08.294Z,5.03
2023-04-27T07:42:00.248Z,4.32
2023-04-27T07:46:58.613Z,5.85
2023-04-27T07:51:50.559Z,5.30
2023-04-27T07:56:43.354Z,5.68
2023-04-27T08:01:35.211Z,4.13
2023-04-27T08:06:29.506Z,5.97
2023-04-27T08:11:21.670Z,5.88
2023-04-27T08:16:13.511Z,5.65
2023-04-27T08:21:05.562Z,6.13
2023-04-27T08:25:57.730Z,5.57
2023-04-27T08:30:49.576Z,5.63
2023-04-27T08:35:41.849Z,7.15
2023-04-27T08:40:33.629Z,6.95
2023-04-27T08:45:27.102Z,6.22
2023-04-27T08:50:19.563Z,6.30
2023-04-27T08:55:12.453Z,7.50
2023-04-27T09:00:13.528Z,8.60
2023-04-27T09:05:06.726Z,7.45
2023-04-27T09:10:05.031Z,8.02
2023-04-27T09:15:06.553Z,7.75
2023-04-27T09:20:13.738Z,7.50
2023-04-27T09:25:05.956Z,7.47
2023-04-27T09:29:57.738Z,6.93
2023-04-27T09:34:49.491Z,8.25
2023-04-27T09:39:42.165Z,8.32
2023-04-27T09:44:34.684Z,8.35
2023-04-27T09:49:28.358Z,8.45
2023-04-27T09:54:22.315Z,7.70
2023-04-27T09:59:49.802Z,7.47
2023-04-27T10:05:00.585Z,9.27
2023-04-27T10:09:52.546Z,8.60
2023-04-27T10:14:51.901Z,8.27
2023-04-27T10:19:58.594Z,8.43
2023-04-27T10:24:52.002Z,8.35
2023-04-27T10:29:46.339Z,7.78
2023-04-27T10:34:39.132Z,8.73
2023-04-27T10:39:47.121Z,9.82
2023-04-27T10:44:40.231Z,8.55
2023-04-27T10:49:32.168Z,7.80
2023-04-27T10:54:29.286Z,7.55
2023-04-27T10:59:21.491Z,7.20
2023-04-27T11:04:13.517Z,7.05
2023-04-27T11:09:06.824Z,5.85
2023-04-27T11:13:58.797Z,5.15
2023-04-27T11:18:50.772Z,5.13
2023-04-27T11:23:43.491Z,5.05
2023-04-27T11:28:35.326Z,4.70
2023-04-27T11:33:28.228Z,6.10
2023-04-27T11:38:22.056Z,6.30
2023-04-27T11:43:14.559Z,6.07
2023-04-27T11:48:06.723Z,6.13
2023-04-27T11:53:01.365Z,5.82
2023-04-27T11:57:58.290Z,7.20
2023-04-27T12:02:50.225Z,6.93
2023-04-27T12:07:43.502Z,6.90
2023-04-27T12:12:36.145Z,5.95
2023-04-27T12:17:27.934Z,5.90
2023-04-27T12:22:20.361Z,6.15
2023-04-27T12:27:12.997Z,5.95
2023-04-27T12:32:05.118Z,6.50
2023-04-27T12:36:57.146Z,7.00
2023-04-27T12:41:50.028Z,5.50
2023-04-27T12:46:42.963Z,7.32
2023-04-27T12:51:35.722Z,7.18
2023-04-27T12:56:28.375Z,5.38
2023-04-27T13:01:21.745Z,7.28
2023-04-27T13:06:13.792Z,6.22
2023-04-27T13:11:05.622Z,6.10
2023-04-27T13:15:58.571Z,5.47
2023-04-27T13:20:51.119Z,5.25
2023-04-27T13:25:42.936Z,4.90
2023-04-27T13:30:34.831Z,5.50
2023-04-27T13:35:27.153Z,5.00
2023-04-27T13:40:19.323Z,6.07
2023-04-27T13:45:11.308Z,5.45
2023-04-27T13:50:08.068Z,5.25
2023-04-27T13:54:59.937Z,5.32
2023-04-27T13:59:51.816Z,6.32
2023-04-27T14:04:43.708Z,4.78
2023-04-27T14:09:35.645Z,5.07
2023-04-27T14:14:27.475Z,4.53
2023-04-27T14:19:20.890Z,4.13
2023-04-27T14:24:12.881Z,4.53
2023-04-27T14:29:04.891Z,4.03
2023-04-27T14:33:59.490Z,3.80
2023-04-27T14:38:51.302Z,4.38
2023-04-27T14:43:44.936Z,5.63
2023-04-27T14:48:36.722Z,16.55
2023-04-27T14:53:28.504Z,7.63
2023-04-27T14:58:20.353Z,5.53
2023-04-27T15:03:12.291Z,4.35
2023-04-27T15:08:04.176Z,4.10
2023-04-27T15:12:56.089Z,3.45
2023-04-27T15:17:48.015Z,2.75
2023-04-27T15:22:39.894Z,3.55
2023-04-27T15:27:31.731Z,3.60
2023-04-27T15:32:28.076Z,3.28
2023-04-27T15:37:19.920Z,3.95
2023-04-27T15:42:11.744Z,3.67
2023-04-27T15:47:03.741Z,3.35
2023-04-27T15:51:55.666Z,4.07
2023-04-27T15:56:47.480Z,4.53
2023-04-27T16:01:39.352Z,4.82
2023-04-27T16:06:35.374Z,3.40
2023-04-27T16:11:27.245Z,3.72
2023-04-27T16:16:19.114Z,5.10
2023-04-27T16:21:10.968Z,13.70
2023-04-27T16:26:02.771Z,9.32
2023-04-27T16:30:54.645Z,5.65
2023-04-27T16:35:46.460Z,3.78
2023-04-27T16:40:38.226Z,3.55
2023-04-27T16:45:29.999Z,3.53
2023-04-27T16:50:21.857Z,3.58
2023-04-27T16:55:13.674Z,3.88
2023-04-27T17:00:06.768Z,3.42
2023-04-27T17:04:59.692Z,3.88
2023-04-27T17:09:51.513Z,4.18
2023-04-27T17:14:43.356Z,2.80
2023-04-27T17:19:35.277Z,3.03
2023-04-27T17:24:27.254Z,2.35
2023-04-27T17:29:19.057Z,2.38
2023-04-27T17:34:11.947Z,1.67
2023-04-27T17:39:04.731Z,1.95
2023-04-27T17:43:56.883Z,1.90
2023-04-27T17:48:48.725Z,1.52
2023-04-27T17:53:40.723Z,1.95
2023-04-27T17:58:32.571Z,2.05
2023-04-27T18:03:24.606Z,1.67
2023-04-27T18:08:16.530Z,1.55
2023-04-27T18:13:08.426Z,1.80
2023-04-27T18:18:00.291Z,3.33
2023-04-27T18:22:52.592Z,3.05
2023-04-27T18:27:45.399Z,2.90
2023-04-27T18:32:37.989Z,2.78
2023-04-27T18:37:30.085Z,2.35
2023-04-27T18:42:23.754Z,2.60
2023-04-27T18:47:15.729Z,2.75
2023-04-27T18:52:11.520Z,2.72
2023-04-27T18:57:04.536Z,2.22
2023-04-27T19:01:56.407Z,2.00
2023-04-27T19:06:50.139Z,2.88
2023-04-27T19:11:42.675Z,2.50
2023-04-27T19:16:35.991Z,2.30
2023-04-27T19:21:27.883Z,2.50
2023-04-27T19:26:19.770Z,2.35
2023-04-27T19:31:11.748Z,2.45
2023-04-27T19:36:03.868Z,3.90
2023-04-27T19:40:55.845Z,2.70
2023-04-27T19:45:49.464Z,3.00
2023-04-27T19:50:41.995Z,2.78
2023-04-27T19:55:33.921Z,3.10
2023-04-27T20:00:25.956Z,2.90
2023-04-27T20:05:18.080Z,2.60
2023-04-27T20:10:10.109Z,2.72
2023-04-27T20:15:02.347Z,3.28
2023-04-27T20:19:57.205Z,3.03
2023-04-27T20:24:49.206Z,3.20
2023-04-27T20:29:43.216Z,2.65
2023-04-27T20:34:34.992Z,2.65
2023-04-27T20:39:26.823Z,3.38
2023-04-27T20:44:19.181Z,3.00
2023-04-27T20:49:12.103Z,3.47
2023-04-27T20:54:04.144Z,3.58
2023-04-27T20:58:56.698Z,2.90
2023-04-27T21:03:48.639Z,3.42
2023-04-27T21:08:40.722Z,3.55
2023-04-27T21:13:32.693Z,3.75
2023-04-27T21:23:20.712Z,3.70
2023-04-27T21:28:13.356Z,5.10
2023-04-27T21:33:05.265Z,4.47
2023-04-27T21:37:57.887Z,4.63
2023-04-27T21:42:53.580Z,5.20
2023-04-27T21:47:46.218Z,4.60
2023-04-27T21:52:38.091Z,5.25
2023-04-27T21:57:32.655Z,7.75
2023-04-27T22:02:25.098Z,5.05
2023-04-27T22:07:17.721Z,5.65
2023-04-27T22:12:09.494Z,5.10
2023-04-27T22:17:01.364Z,5.65
2023-04-27T22:21:53.805Z,4.53
2023-04-27T22:26:48.473Z,5.72
2023-04-27T22:31:40.429Z,5.38
2023-04-27T22:36:33.655Z,5.25
2023-04-27T22:41:25.495Z,5.30
2023-04-27T22:46:17.361Z,5.30
2023-04-27T22:51:09.893Z,4.70
2023-04-27T22:56:01.747Z,6.32
2023-04-27T23:00:53.707Z,5.28
2023-04-27T23:05:45.766Z,5.28
2023-04-27T23:10:39.034Z,5.53
2023-04-27T23:15:31.256Z,4.78
2023-04-27T23:20:28.565Z,5.55
2023-04-27T23:25:21.639Z,5.13
2023-04-27T23:30:13.465Z,5.40
2023-04-27T23:35:05.955Z,5.25
2023-04-27T23:39:57.715Z,5.75
2023-04-27T23:44:49.500Z,4.88
2023-04-27T23:49:44.745Z,4.65
2023-04-27T23:54:36.549Z,4.63
2023-04-27T23:59:28.416Z,5.10
